Terminal Aerodrome Forecast
Issued by NWS Louisville, KY

Home | Current Version | Previous Version | Text Only | Print | Product List | Glossary On
Versions: 1 2 3 4 5 6 7 8 9 10 11 12 13 14
000
FTUS43 KLMK 220500
TAFBWG
TAF
KBWG 220520Z 2206/2306 00000KT P6SM SKC
      TEMPO 2209/2213 2SM BR
     FM221400 03006KT P6SM FEW040
     FM222300 00000KT P6SM SKC=

USA.gov is the U.S. government's official web portal to all federal, state and local government web resources and services.